createdAt,value
2023-05-19T00:02:09.238Z,11.14
2023-05-19T00:04:36.270Z,11.08
2023-05-19T00:07:03.356Z,10.97
2023-05-19T00:09:30.097Z,10.93
2023-05-19T00:11:56.830Z,10.96
2023-05-19T00:14:23.527Z,10.96
2023-05-19T00:16:50.384Z,10.91
2023-05-19T00:19:16.994Z,10.87
2023-05-19T00:21:43.850Z,10.79
2023-05-19T00:24:10.289Z,10.82
2023-05-19T00:26:37.166Z,10.65
2023-05-19T00:29:03.683Z,10.63
2023-05-19T00:31:31.733Z,10.61
2023-05-19T00:33:58.285Z,10.55
2023-05-19T00:36:24.868Z,10.49
2023-05-19T00:38:51.904Z,10.46
2023-05-19T00:41:18.558Z,10.36
2023-05-19T00:43:45.131Z,10.39
2023-05-19T00:46:11.731Z,10.32
2023-05-19T00:48:38.224Z,10.32
2023-05-19T00:51:06.476Z,10.25
2023-05-19T00:53:34.166Z,10.06
2023-05-19T00:56:01.755Z,9.92
2023-05-19T00:58:29.309Z,9.82
2023-05-19T01:01:04.105Z,9.75
2023-05-19T01:03:32.230Z,9.59
2023-05-19T01:06:01.732Z,9.46
2023-05-19T01:08:29.313Z,9.31
2023-05-19T01:10:56.686Z,9.22
2023-05-19T01:13:23.611Z,9.26
2023-05-19T01:16:03.950Z,9.26
2023-05-19T01:18:39.850Z,9.13
2023-05-19T01:21:12.535Z,9.11
2023-05-19T01:24:09.215Z,8.99
2023-05-19T01:26:50.808Z,8.79
2023-05-19T01:30:04.964Z,8.72
2023-05-19T01:32:33.726Z,8.71
2023-05-19T01:35:01.346Z,8.57
2023-05-19T01:37:29.033Z,8.56
2023-05-19T01:39:56.951Z,8.59
2023-05-19T01:42:23.730Z,8.48
2023-05-19T01:44:51.337Z,8.33
2023-05-19T01:47:18.437Z,8.21
2023-05-19T01:49:44.997Z,8.17
2023-05-19T01:52:11.666Z,8.09
2023-05-19T01:54:38.210Z,8.07
2023-05-19T01:57:32.263Z,7.98
2023-05-19T02:00:10.476Z,7.96
2023-05-19T02:02:56.174Z,7.94
2023-05-19T02:05:31.012Z,7.86
2023-05-19T02:08:08.157Z,7.82
2023-05-19T02:10:36.482Z,7.78
2023-05-19T02:13:05.391Z,7.79
2023-05-19T02:15:39.367Z,7.84
2023-05-19T02:18:06.394Z,7.84
2023-05-19T02:20:33.332Z,7.82
2023-05-19T02:23:00.331Z,7.81
2023-05-19T02:25:27.261Z,8.00
2023-05-19T02:27:54.672Z,8.05
2023-05-19T02:30:21.318Z,8.07
2023-05-19T02:32:47.932Z,8.08
2023-05-19T02:35:14.643Z,8.11
2023-05-19T02:37:41.429Z,8.06
2023-05-19T02:40:08.524Z,8.05
2023-05-19T02:42:35.012Z,8.05
2023-05-19T02:45:01.653Z,8.11
2023-05-19T02:47:28.279Z,8.14
2023-05-19T02:49:54.791Z,8.27
2023-05-19T02:52:21.286Z,8.29
2023-05-19T02:54:47.791Z,8.23
2023-05-19T02:57:14.294Z,8.19
2023-05-19T02:59:41.095Z,8.15
2023-05-19T03:02:07.814Z,8.25
2023-05-19T03:04:41.503Z,8.23
2023-05-19T03:07:09.981Z,8.21
2023-05-19T03:09:39.692Z,8.21
2023-05-19T03:12:07.577Z,8.13
2023-05-19T03:14:40.321Z,8.08
2023-05-19T03:17:10.307Z,8.03
2023-05-19T03:19:36.807Z,8.06
2023-05-19T03:22:03.470Z,7.96
2023-05-19T03:24:29.928Z,7.93
2023-05-19T03:26:56.427Z,7.93
2023-05-19T03:29:22.848Z,7.97
2023-05-19T03:31:49.345Z,7.87
2023-05-19T03:34:16.020Z,7.80
2023-05-19T03:36:43.078Z,7.79
2023-05-19T03:39:09.634Z,7.82
2023-05-19T03:41:36.101Z,7.86
2023-05-19T03:44:02.577Z,8.00
2023-05-19T03:46:29.167Z,8.07
2023-05-19T03:48:56.128Z,8.15
2023-05-19T03:51:22.548Z,8.14
2023-05-19T03:53:48.995Z,8.21
2023-05-19T03:56:16.838Z,8.23
2023-05-19T03:58:44.501Z,8.28
2023-05-19T04:01:11.642Z,8.42
2023-05-19T04:03:38.288Z,8.41
2023-05-19T04:06:04.856Z,8.44
2023-05-19T04:08:32.128Z,8.43
2023-05-19T04:10:58.910Z,8.57
2023-05-19T04:13:25.456Z,8.62
2023-05-19T04:15:52.041Z,8.65
2023-05-19T04:18:18.583Z,8.75
2023-05-19T04:20:45.031Z,8.86
2023-05-19T04:23:11.530Z,8.96
2023-05-19T04:25:38.291Z,9.07
2023-05-19T04:28:04.832Z,9.31
2023-05-19T04:30:31.479Z,9.52
2023-05-19T04:32:59.284Z,9.54
2023-05-19T04:35:25.969Z,9.63
2023-05-19T04:37:54.408Z,9.71
2023-05-19T04:40:23.665Z,9.80
2023-05-19T04:42:54.140Z,9.91
2023-05-19T04:45:20.628Z,9.79
2023-05-19T04:47:48.156Z,9.76
2023-05-19T04:50:16.422Z,9.86
2023-05-19T04:52:45.443Z,9.87
2023-05-19T04:55:13.162Z,9.99
2023-05-19T04:57:40.033Z,10.10
2023-05-19T05:00:09.074Z,10.17
2023-05-19T05:02:36.124Z,10.17
2023-05-19T05:05:02.714Z,10.44
2023-05-19T05:07:31.613Z,10.45
2023-05-19T05:09:58.740Z,10.50
2023-05-19T05:12:25.645Z,10.81
2023-05-19T05:14:52.302Z,10.85
2023-05-19T05:17:19.173Z,10.92
2023-05-19T05:19:45.941Z,11.25
2023-05-19T05:22:12.851Z,11.26
2023-05-19T05:24:39.592Z,11.19
2023-05-19T05:27:08.145Z,11.45
2023-05-19T05:29:34.729Z,11.91
2023-05-19T05:32:01.330Z,11.74
2023-05-19T05:34:28.017Z,12.17
2023-05-19T05:36:54.800Z,12.38
2023-05-19T05:39:21.218Z,12.40
2023-05-19T05:41:47.780Z,12.83
2023-05-19T05:44:14.256Z,13.15
2023-05-19T05:46:40.939Z,12.98
2023-05-19T05:49:07.717Z,13.11
2023-05-19T05:51:34.622Z,13.21
2023-05-19T05:54:02.106Z,13.38
2023-05-19T05:56:28.941Z,13.52
2023-05-19T05:58:56.789Z,13.68
2023-05-19T06:01:23.955Z,13.78
2023-05-19T06:03:50.976Z,13.95
2023-05-19T06:06:17.532Z,14.14
2023-05-19T06:08:44.020Z,14.23
2023-05-19T06:11:10.694Z,13.73
2023-05-19T06:13:38.078Z,14.18
2023-05-19T06:16:06.150Z,14.48
2023-05-19T06:18:32.721Z,14.82
2023-05-19T06:20:59.258Z,14.52
2023-05-19T06:23:26.845Z,14.52
2023-05-19T06:25:53.371Z,15.28
2023-05-19T06:28:19.849Z,15.90
2023-05-19T06:30:46.460Z,15.69
2023-05-19T06:33:13.030Z,15.53
2023-05-19T06:35:39.530Z,15.43
2023-05-19T06:38:06.101Z,16.40
2023-05-19T06:40:33.296Z,17.20
2023-05-19T06:42:59.961Z,17.99
2023-05-19T06:45:26.587Z,19.97
2023-05-19T06:47:54.124Z,22.24
2023-05-19T06:50:20.998Z,20.64
2023-05-19T06:52:47.463Z,19.67
2023-05-19T06:55:13.902Z,19.40
2023-05-19T06:57:40.493Z,19.66
2023-05-19T07:00:11.454Z,19.64
2023-05-19T07:02:38.948Z,19.75
2023-05-19T07:05:06.650Z,19.89
2023-05-19T07:07:33.178Z,21.10
2023-05-19T07:09:59.719Z,19.13
2023-05-19T07:12:26.645Z,19.57
2023-05-19T07:14:53.596Z,18.85
2023-05-19T07:17:20.691Z,18.47
2023-05-19T07:19:47.135Z,18.62
2023-05-19T07:22:13.690Z,19.55
2023-05-19T07:24:40.758Z,21.30
2023-05-19T07:27:07.369Z,21.52
2023-05-19T07:29:34.490Z,21.34
2023-05-19T07:32:01.128Z,22.44
2023-05-19T07:34:27.556Z,21.63
2023-05-19T07:36:54.267Z,23.41
2023-05-19T07:39:21.207Z,24.41
2023-05-19T07:41:52.728Z,23.70
2023-05-19T07:44:19.353Z,23.03
2023-05-19T07:46:46.035Z,23.94
2023-05-19T07:49:12.483Z,23.48
2023-05-19T07:51:38.942Z,23.99
2023-05-19T07:54:05.464Z,22.73
2023-05-19T07:56:31.945Z,23.55
2023-05-19T07:58:58.411Z,22.92
2023-05-19T08:01:24.969Z,21.57
2023-05-19T08:03:51.632Z,22.06
2023-05-19T08:06:18.414Z,23.81
2023-05-19T08:08:44.913Z,22.91
2023-05-19T08:11:11.983Z,22.59
2023-05-19T08:13:38.706Z,22.70
2023-05-19T08:16:05.703Z,23.86
2023-05-19T08:18:32.264Z,24.16
2023-05-19T08:20:58.834Z,25.41
2023-05-19T08:23:25.425Z,24.90
2023-05-19T08:25:52.295Z,24.99
2023-05-19T08:28:18.808Z,26.10
2023-05-19T08:30:45.287Z,24.62
2023-05-19T08:33:12.008Z,23.24
2023-05-19T08:35:38.557Z,21.84
2023-05-19T08:38:05.111Z,21.19
2023-05-19T08:40:33.734Z,21.26
2023-05-19T08:43:00.610Z,22.72
2023-05-19T08:45:27.415Z,23.35
2023-05-19T08:47:54.275Z,23.92
2023-05-19T08:50:30.707Z,23.25
2023-05-19T08:53:31.829Z,23.75
2023-05-19T08:56:10.431Z,25.25
2023-05-19T08:58:39.718Z,24.16
2023-05-19T09:01:07.363Z,22.77
2023-05-19T09:03:41.020Z,23.89
2023-05-19T09:06:17.108Z,23.71
2023-05-19T09:08:44.338Z,25.02
2023-05-19T09:11:11.435Z,24.87
2023-05-19T09:13:38.880Z,23.64
2023-05-19T09:16:06.541Z,24.03
2023-05-19T09:18:33.140Z,23.80
2023-05-19T09:21:02.269Z,22.35
2023-05-19T09:23:30.706Z,22.98
2023-05-19T09:25:57.608Z,23.04
2023-05-19T09:28:32.188Z,23.39
2023-05-19T09:31:09.408Z,24.46
2023-05-19T09:33:42.904Z,24.73
2023-05-19T09:36:11.605Z,22.38
2023-05-19T09:38:39.290Z,21.17
2023-05-19T09:41:07.475Z,20.03
2023-05-19T09:43:35.116Z,21.14
2023-05-19T09:46:09.613Z,21.68
2023-05-19T09:48:37.807Z,21.60
2023-05-19T09:51:07.582Z,22.58
2023-05-19T09:53:34.294Z,22.46
2023-05-19T09:56:02.063Z,23.02
2023-05-19T09:58:32.051Z,22.86
2023-05-19T10:00:58.590Z,24.17
2023-05-19T10:03:25.580Z,24.04
2023-05-19T10:05:53.565Z,22.66
2023-05-19T10:08:20.320Z,23.47
2023-05-19T10:10:47.758Z,23.15
2023-05-19T10:13:14.763Z,24.69
2023-05-19T10:15:57.019Z,24.94
2023-05-19T10:18:26.219Z,23.68
2023-05-19T10:20:52.861Z,24.35
2023-05-19T10:23:19.395Z,24.11
2023-05-19T10:25:46.241Z,23.71
2023-05-19T10:28:15.153Z,22.89
2023-05-19T10:30:44.650Z,23.89
2023-05-19T10:33:14.789Z,24.21
2023-05-19T10:36:08.344Z,25.43
2023-05-19T10:38:43.165Z,27.17
2023-05-19T10:41:35.768Z,26.52
2023-05-19T10:44:30.827Z,25.27
2023-05-19T10:46:57.408Z,22.71
2023-05-19T10:49:24.182Z,23.97
2023-05-19T10:51:57.604Z,23.00
2023-05-19T10:54:46.428Z,22.93
2023-05-19T10:57:19.829Z,23.08
2023-05-19T10:59:47.063Z,23.86
2023-05-19T11:02:43.765Z,24.26
2023-05-19T11:05:16.534Z,23.73
2023-05-19T11:07:44.444Z,24.54
2023-05-19T11:10:11.581Z,24.28
2023-05-19T11:12:43.244Z,23.75
2023-05-19T11:15:15.066Z,23.41
2023-05-19T11:17:42.745Z,24.77
2023-05-19T11:20:12.631Z,24.51
2023-05-19T11:22:39.898Z,23.34
2023-05-19T11:25:07.694Z,23.34
2023-05-19T11:27:38.213Z,24.18
2023-05-19T11:30:09.172Z,22.05
2023-05-19T11:32:39.073Z,21.61
2023-05-19T11:35:06.854Z,22.03
2023-05-19T11:37:34.633Z,23.21
2023-05-19T11:40:08.273Z,23.44
2023-05-19T11:42:36.182Z,24.35
2023-05-19T11:45:04.172Z,24.79
2023-05-19T11:47:38.795Z,23.91
2023-05-19T11:50:13.859Z,22.72
2023-05-19T11:52:44.778Z,22.79
2023-05-19T11:55:15.934Z,22.90
2023-05-19T11:58:02.893Z,23.77
2023-05-19T12:00:34.901Z,22.47
2023-05-19T12:03:01.810Z,21.12
2023-05-19T12:05:29.275Z,21.65
2023-05-19T12:07:55.899Z,21.61
2023-05-19T12:10:30.390Z,20.46
2023-05-19T12:12:58.387Z,21.18
2023-05-19T12:15:25.622Z,22.04
2023-05-19T12:17:57.346Z,21.03
2023-05-19T12:20:24.509Z,20.65
2023-05-19T12:22:51.437Z,20.91
2023-05-19T12:25:18.351Z,21.16
2023-05-19T12:27:45.334Z,20.70
2023-05-19T12:30:15.265Z,21.10
2023-05-19T12:32:42.780Z,22.53
2023-05-19T12:35:10.049Z,23.44
2023-05-19T12:37:37.275Z,22.39
2023-05-19T12:40:04.375Z,21.45
2023-05-19T12:42:31.433Z,22.18
2023-05-19T12:45:04.593Z,21.69
2023-05-19T12:47:35.302Z,21.55
2023-05-19T12:50:08.076Z,21.25
2023-05-19T12:52:41.294Z,20.98
2023-05-19T12:55:09.138Z,21.08
2023-05-19T12:57:40.491Z,20.92
2023-05-19T13:00:25.883Z,20.78
2023-05-19T13:03:05.229Z,21.25
2023-05-19T13:05:33.792Z,21.33
2023-05-19T13:08:02.276Z,21.68
2023-05-19T13:10:29.649Z,22.18
2023-05-19T13:12:57.284Z,21.24
2023-05-19T13:15:26.301Z,20.35
2023-05-19T13:17:54.737Z,21.09
2023-05-19T13:20:21.978Z,20.88
2023-05-19T13:22:48.862Z,20.20
2023-05-19T13:25:15.829Z,20.82
2023-05-19T13:27:42.867Z,20.77
2023-05-19T13:30:09.721Z,20.48
2023-05-19T13:32:36.469Z,19.61
2023-05-19T13:35:03.164Z,19.47
2023-05-19T13:37:29.882Z,19.27
2023-05-19T13:39:58.523Z,19.13
2023-05-19T13:42:25.082Z,18.67
2023-05-19T13:44:56.215Z,18.95
2023-05-19T13:47:25.739Z,19.65
2023-05-19T13:49:52.843Z,19.48
2023-05-19T13:52:20.828Z,19.78
2023-05-19T13:54:48.040Z,20.54
2023-05-19T13:57:15.313Z,20.77
2023-05-19T13:59:53.323Z,20.59
2023-05-19T14:02:27.164Z,20.55
2023-05-19T14:04:54.280Z,20.32
2023-05-19T14:07:21.295Z,19.88
2023-05-19T14:09:48.306Z,19.89
2023-05-19T14:12:15.408Z,20.47
2023-05-19T14:14:41.982Z,20.61
2023-05-19T14:17:08.627Z,19.95
2023-05-19T14:19:35.118Z,19.81
2023-05-19T14:22:01.580Z,19.52
2023-05-19T14:24:28.129Z,19.86
2023-05-19T14:26:54.610Z,20.11
2023-05-19T14:29:21.131Z,19.80
2023-05-19T14:31:47.644Z,19.82
2023-05-19T14:34:17.821Z,20.26
2023-05-19T14:36:44.655Z,19.96
2023-05-19T14:39:11.932Z,19.87
2023-05-19T14:41:38.394Z,19.97
2023-05-19T14:44:05.380Z,19.73
2023-05-19T14:46:31.979Z,19.25
2023-05-19T14:48:58.570Z,18.82
2023-05-19T14:51:25.024Z,18.68
2023-05-19T14:53:51.557Z,18.55
2023-05-19T14:56:18.062Z,18.49
2023-05-19T14:58:44.479Z,18.63
2023-05-19T15:01:11.523Z,18.36
2023-05-19T15:03:38.167Z,18.31
2023-05-19T15:06:09.479Z,18.06
2023-05-19T15:08:37.718Z,17.83
2023-05-19T15:11:04.675Z,17.85
2023-05-19T15:13:31.108Z,17.98
2023-05-19T15:16:12.451Z,17.98
2023-05-19T15:18:42.708Z,17.70
2023-05-19T15:21:09.308Z,17.43
2023-05-19T15:23:35.773Z,17.27
2023-05-19T15:26:02.351Z,17.29
2023-05-19T15:28:28.847Z,17.65
2023-05-19T15:30:55.582Z,17.72
2023-05-19T15:33:22.085Z,17.63
2023-05-19T15:35:51.627Z,17.65
2023-05-19T15:38:19.182Z,17.99
2023-05-19T15:40:46.698Z,17.67
2023-05-19T15:43:13.424Z,17.71
2023-05-19T15:45:39.894Z,17.59
2023-05-19T15:48:06.661Z,17.46
2023-05-19T15:50:33.397Z,17.22
2023-05-19T15:52:59.940Z,17.15
2023-05-19T15:55:26.602Z,17.13
2023-05-19T15:57:53.117Z,16.92
2023-05-19T16:00:19.581Z,16.92
2023-05-19T16:02:46.151Z,16.79
2023-05-19T16:05:12.706Z,16.67
2023-05-19T16:07:39.096Z,16.92
2023-05-19T16:10:05.910Z,16.71
2023-05-19T16:12:32.402Z,16.85
2023-05-19T16:14:58.946Z,16.83
2023-05-19T16:17:26.033Z,16.83
2023-05-19T16:19:52.996Z,16.65
2023-05-19T16:22:19.552Z,16.89
2023-05-19T16:24:46.357Z,16.74
2023-05-19T16:27:12.778Z,16.34
2023-05-19T16:29:39.532Z,16.23
2023-05-19T16:32:06.266Z,15.98
2023-05-19T16:34:32.758Z,15.82
2023-05-19T16:36:59.222Z,15.95
2023-05-19T16:39:25.692Z,15.93
2023-05-19T16:41:53.130Z,15.98
2023-05-19T16:44:19.792Z,15.84
2023-05-19T16:46:46.329Z,15.73
2023-05-19T16:49:12.933Z,15.62
2023-05-19T16:51:39.351Z,15.50
2023-05-19T16:54:05.843Z,15.54
2023-05-19T16:56:32.491Z,15.52
2023-05-19T16:58:59.048Z,15.64
2023-05-19T17:01:25.637Z,15.64
2023-05-19T17:03:52.295Z,15.60
2023-05-19T17:06:18.818Z,15.56
2023-05-19T17:08:45.426Z,15.62
2023-05-19T17:11:13.394Z,15.77
2023-05-19T17:13:41.857Z,15.77
2023-05-19T17:16:08.483Z,15.71
2023-05-19T17:18:34.916Z,15.77
2023-05-19T17:21:03.672Z,15.60
2023-05-19T17:23:30.371Z,15.69
2023-05-19T17:25:56.840Z,15.48
2023-05-19T17:28:23.498Z,15.46
2023-05-19T17:30:49.952Z,15.38
2023-05-19T17:33:16.526Z,15.39
2023-05-19T17:35:43.206Z,15.24
2023-05-19T17:38:09.662Z,15.19
2023-05-19T17:40:37.048Z,15.22
2023-05-19T17:43:03.730Z,15.10
2023-05-19T17:45:30.504Z,15.08
2023-05-19T17:47:56.997Z,15.13
2023-05-19T17:50:23.543Z,15.16
2023-05-19T17:52:50.783Z,15.05
2023-05-19T17:55:18.192Z,15.09
2023-05-19T17:57:46.232Z,15.08
2023-05-19T18:00:13.201Z,14.89
2023-05-19T18:02:40.183Z,14.84
2023-05-19T18:05:07.297Z,14.84
2023-05-19T18:07:38.691Z,14.83
2023-05-19T18:10:06.096Z,14.77
2023-05-19T18:12:32.559Z,14.71
2023-05-19T18:14:59.274Z,14.66
2023-05-19T18:17:25.902Z,14.65
2023-05-19T18:19:52.446Z,14.68
2023-05-19T18:22:18.964Z,14.68
2023-05-19T18:24:45.562Z,14.57
2023-05-19T18:27:12.097Z,14.48
2023-05-19T18:29:38.584Z,14.51
2023-05-19T18:32:05.439Z,14.45
2023-05-19T18:34:32.098Z,14.48
2023-05-19T18:36:58.629Z,14.38
2023-05-19T18:39:26.559Z,14.47
2023-05-19T18:41:54.628Z,14.46
2023-05-19T18:44:21.072Z,14.34
2023-05-19T18:46:47.661Z,14.24
2023-05-19T18:49:14.114Z,14.28
2023-05-19T18:51:42.017Z,14.29
2023-05-19T18:54:08.566Z,14.27
2023-05-19T18:56:35.432Z,14.31
2023-05-19T18:59:01.939Z,14.24
2023-05-19T19:01:28.617Z,14.31
2023-05-19T19:03:55.197Z,14.23
2023-05-19T19:06:23.009Z,14.26
2023-05-19T19:08:49.811Z,14.24
2023-05-19T19:11:16.483Z,14.14
2023-05-19T19:13:43.695Z,13.99
2023-05-19T19:16:10.659Z,13.97
2023-05-19T19:18:37.215Z,14.02
2023-05-19T19:21:05.570Z,13.92
2023-05-19T19:23:32.627Z,13.95
2023-05-19T19:25:59.171Z,13.96
2023-05-19T19:28:26.151Z,13.95
2023-05-19T19:30:52.720Z,13.86
2023-05-19T19:33:19.284Z,13.74
2023-05-19T19:35:46.965Z,13.94
2023-05-19T19:38:13.774Z,13.78
2023-05-19T19:40:40.323Z,13.75
2023-05-19T19:43:06.900Z,13.74
2023-05-19T19:45:34.855Z,13.74
2023-05-19T19:48:01.767Z,13.72
2023-05-19T19:50:28.462Z,13.72
2023-05-19T19:52:55.089Z,13.64
2023-05-19T19:55:21.635Z,13.64
2023-05-19T19:57:49.584Z,13.61
2023-05-19T20:00:16.584Z,13.50
2023-05-19T20:02:59.535Z,13.61
2023-05-19T20:05:29.588Z,13.62
2023-05-19T20:07:56.083Z,13.68
2023-05-19T20:10:22.617Z,13.58
2023-05-19T20:12:50.462Z,13.47
2023-05-19T20:15:17.110Z,13.40
2023-05-19T20:17:43.595Z,13.48
2023-05-19T20:20:11.750Z,13.42
2023-05-19T20:22:38.965Z,13.32
2023-05-19T20:25:06.011Z,13.27
2023-05-19T20:27:32.815Z,13.29
2023-05-19T20:29:59.439Z,13.36
2023-05-19T20:32:26.105Z,13.32
2023-05-19T20:34:52.717Z,13.42
2023-05-19T20:37:19.198Z,13.43
2023-05-19T20:39:45.651Z,13.38
2023-05-19T20:42:12.310Z,13.41
2023-05-19T20:44:38.814Z,13.31
2023-05-19T20:47:08.054Z,13.33
2023-05-19T20:49:34.901Z,13.47
2023-05-19T20:52:01.548Z,13.49
2023-05-19T20:54:28.234Z,13.41
2023-05-19T20:56:54.845Z,13.36
2023-05-19T20:59:21.497Z,13.34
2023-05-19T21:01:48.156Z,13.30
2023-05-19T21:04:14.733Z,13.38
2023-05-19T21:06:41.335Z,13.37
2023-05-19T21:09:07.950Z,13.37
2023-05-19T21:11:34.480Z,13.43
2023-05-19T21:14:03.921Z,13.45
2023-05-19T21:16:31.567Z,13.40
2023-05-19T21:18:58.299Z,13.38
2023-05-19T21:21:25.240Z,13.40
2023-05-19T21:23:51.913Z,13.35
2023-05-19T21:26:18.391Z,13.32
2023-05-19T21:28:44.876Z,13.23
2023-05-19T21:31:11.648Z,13.30
2023-05-19T21:33:38.140Z,13.18
2023-05-19T21:36:04.888Z,13.19
2023-05-19T21:38:31.359Z,13.18
2023-05-19T21:40:57.909Z,13.18
2023-05-19T21:43:24.369Z,13.15
2023-05-19T21:45:50.964Z,13.19
2023-05-19T21:48:17.681Z,13.08
2023-05-19T21:50:44.327Z,13.20
2023-05-19T21:53:10.792Z,13.09
2023-05-19T21:55:37.479Z,13.19
2023-05-19T21:58:04.269Z,13.13
2023-05-19T22:00:30.709Z,13.11
2023-05-19T22:02:57.632Z,13.07
2023-05-19T22:05:24.228Z,13.20
2023-05-19T22:07:50.786Z,13.06
2023-05-19T22:10:17.462Z,13.04
2023-05-19T22:12:44.009Z,12.99
2023-05-19T22:15:11.454Z,13.09
2023-05-19T22:17:38.252Z,13.05
2023-05-19T22:20:05.877Z,13.10
2023-05-19T22:22:32.769Z,13.02
2023-05-19T22:24:59.362Z,13.10
2023-05-19T22:27:25.789Z,13.05
2023-05-19T22:29:52.313Z,13.00
2023-05-19T22:32:19.556Z,12.99
2023-05-19T22:34:46.362Z,12.98
2023-05-19T22:37:12.983Z,13.05
2023-05-19T22:39:39.640Z,12.99
2023-05-19T22:42:06.134Z,13.00
2023-05-19T22:44:32.782Z,13.10
2023-05-19T22:46:59.478Z,13.08
2023-05-19T22:49:27.393Z,12.94
2023-05-19T22:51:53.893Z,12.96
2023-05-19T22:54:20.644Z,13.05
2023-05-19T22:56:48.896Z,13.05
2023-05-19T22:59:17.939Z,12.98
2023-05-19T23:01:46.521Z,12.84
2023-05-19T23:04:13.925Z,12.86
2023-05-19T23:06:40.592Z,12.80
2023-05-19T23:09:07.069Z,12.89
2023-05-19T23:11:34.250Z,12.86
2023-05-19T23:14:01.060Z,12.93
2023-05-19T23:16:27.827Z,12.90
2023-05-19T23:18:54.638Z,12.86
2023-05-19T23:21:21.460Z,13.00
2023-05-19T23:23:48.191Z,12.98
2023-05-19T23:26:14.984Z,12.86
2023-05-19T23:28:42.510Z,12.74
2023-05-19T23:31:09.586Z,12.82
2023-05-19T23:33:36.431Z,12.86
2023-05-19T23:36:10.276Z,12.81
2023-05-19T23:38:37.278Z,12.72
2023-05-19T23:41:03.890Z,12.76
2023-05-19T23:43:32.254Z,12.80
2023-05-19T23:45:59.145Z,12.72
2023-05-19T23:48:26.592Z,12.70
2023-05-19T23:50:53.096Z,12.65
2023-05-19T23:53:19.855Z,12.58
2023-05-19T23:55:47.353Z,12.50
2023-05-19T23:58:14.664Z,12.48
